sensor_id;sensor_type;location;lat;lon;timestamp;pressure;altitude;pressure_sealevel;temperature;humidity
75886;BME280;64561;44.018;10.144;2023-04-03T00:01:40;101139.22;;;10.23;70.26
75886;BME280;64561;44.018;10.144;2023-04-03T00:04:07;101127.50;;;10.29;70.28
75886;BME280;64561;44.018;10.144;2023-04-03T00:06:33;101111.41;;;10.05;70.16
75886;BME280;64561;44.018;10.144;2023-04-03T00:09:01;101112.94;;;10.00;70.14
75886;BME280;64561;44.018;10.144;2023-04-03T00:11:28;101113.13;;;9.79;71.06
75886;BME280;64561;44.018;10.144;2023-04-03T00:13:55;101117.22;;;9.74;71.32
75886;BME280;64561;44.018;10.144;2023-04-03T00:16:22;101102.09;;;9.80;70.45
75886;BME280;64561;44.018;10.144;2023-04-03T00:18:48;101109.38;;;9.95;70.62
75886;BME280;64561;44.018;10.144;2023-04-03T00:21:15;101103.66;;;10.03;70.11
75886;BME280;64561;44.018;10.144;2023-04-03T00:23:42;101097.72;;;10.04;71.25
75886;BME280;64561;44.018;10.144;2023-04-03T00:26:09;101099.78;;;10.16;71.38
75886;BME280;64561;44.018;10.144;2023-04-03T00:28:38;101094.47;;;10.08;69.91
75886;BME280;64561;44.018;10.144;2023-04-03T00:31:05;101095.72;;;9.94;69.54
75886;BME280;64561;44.018;10.144;2023-04-03T00:33:32;101086.56;;;9.74;70.24
75886;BME280;64561;44.018;10.144;2023-04-03T00:35:59;101081.41;;;9.72;70.51
75886;BME280;64561;44.018;10.144;2023-04-03T00:38:27;101089.31;;;9.80;69.42
75886;BME280;64561;44.018;10.144;2023-04-03T00:40:54;101089.59;;;9.89;71.53
75886;BME280;64561;44.018;10.144;2023-04-03T00:43:23;101088.34;;;10.03;71.63
75886;BME280;64561;44.018;10.144;2023-04-03T00:45:53;101095.81;;;9.97;70.56
75886;BME280;64561;44.018;10.144;2023-04-03T00:48:23;101081.53;;;9.77;69.14
75886;BME280;64561;44.018;10.144;2023-04-03T00:50:52;101080.34;;;9.66;70.10
75886;BME280;64561;44.018;10.144;2023-04-03T00:53:23;101080.84;;;9.54;70.29
75886;BME280;64561;44.018;10.144;2023-04-03T00:55:53;101082.66;;;9.58;70.16
75886;BME280;64561;44.018;10.144;2023-04-03T00:58:28;101086.91;;;9.57;69.37
75886;BME280;64561;44.018;10.144;2023-04-03T01:00:58;101077.22;;;9.74;70.96
75886;BME280;64561;44.018;10.144;2023-04-03T01:03:26;101083.50;;;9.84;71.26
75886;BME280;64561;44.018;10.144;2023-04-03T01:05:54;101080.78;;;9.79;69.67
75886;BME280;64561;44.018;10.144;2023-04-03T01:08:21;101084.38;;;9.86;69.78
75886;BME280;64561;44.018;10.144;2023-04-03T01:10:48;101072.66;;;9.93;71.05
75886;BME280;64561;44.018;10.144;2023-04-03T01:13:25;101074.81;;;9.79;70.82
75886;BME280;64561;44.018;10.144;2023-04-03T01:15:53;101067.38;;;9.59;70.91
75886;BME280;64561;44.018;10.144;2023-04-03T01:18:22;101056.56;;;9.68;70.32
75886;BME280;64561;44.018;10.144;2023-04-03T01:26:45;101057.84;;;9.54;70.86
75886;BME280;64561;44.018;10.144;2023-04-03T01:29:12;101064.03;;;9.35;71.70
75886;BME280;64561;44.018;10.144;2023-04-03T01:31:52;101054.88;;;9.42;71.39
75886;BME280;64561;44.018;10.144;2023-04-03T01:34:20;101050.75;;;9.45;70.26
75886;BME280;64561;44.018;10.144;2023-04-03T01:36:47;101058.63;;;9.51;70.38
75886;BME280;64561;44.018;10.144;2023-04-03T01:39:14;101049.34;;;9.55;69.32
75886;BME280;64561;44.018;10.144;2023-04-03T01:41:42;101043.81;;;9.68;68.40
75886;BME280;64561;44.018;10.144;2023-04-03T01:44:18;101045.78;;;9.77;69.95
75886;BME280;64561;44.018;10.144;2023-04-03T01:46:45;101039.97;;;9.81;69.29
75886;BME280;64561;44.018;10.144;2023-04-03T01:49:12;101042.59;;;9.84;69.08
75886;BME280;64561;44.018;10.144;2023-04-03T01:51:39;101039.78;;;9.75;71.15
75886;BME280;64561;44.018;10.144;2023-04-03T01:54:06;101036.28;;;9.73;69.47
75886;BME280;64561;44.018;10.144;2023-04-03T01:56:32;101046.63;;;9.77;69.89
75886;BME280;64561;44.018;10.144;2023-04-03T01:58:59;101040.81;;;9.81;70.28
75886;BME280;64561;44.018;10.144;2023-04-03T02:01:26;101041.03;;;9.89;71.57
75886;BME280;64561;44.018;10.144;2023-04-03T02:03:53;101035.22;;;9.93;70.67
75886;BME280;64561;44.018;10.144;2023-04-03T02:06:20;101040.94;;;9.86;69.60
75886;BME280;64561;44.018;10.144;2023-04-03T02:08:47;101028.31;;;9.91;69.93
75886;BME280;64561;44.018;10.144;2023-04-03T02:11:13;101048.75;;;9.91;70.44
75886;BME280;64561;44.018;10.144;2023-04-03T02:13:40;101033.78;;;10.03;68.40
75886;BME280;64561;44.018;10.144;2023-04-03T02:16:09;101033.34;;;9.88;68.98
75886;BME280;64561;44.018;10.144;2023-04-03T02:18:37;101036.59;;;9.83;68.27
75886;BME280;64561;44.018;10.144;2023-04-03T02:21:04;101034.28;;;9.91;67.95
75886;BME280;64561;44.018;10.144;2023-04-03T02:23:32;101026.81;;;9.97;68.38
75886;BME280;64561;44.018;10.144;2023-04-03T02:26:08;101032.88;;;10.01;69.24
75886;BME280;64561;44.018;10.144;2023-04-03T02:28:35;101027.84;;;10.04;70.38
75886;BME280;64561;44.018;10.144;2023-04-03T02:31:05;101035.66;;;10.08;70.73
75886;BME280;64561;44.018;10.144;2023-04-03T02:33:34;101023.22;;;10.21;68.41
75886;BME280;64561;44.018;10.144;2023-04-03T02:36:06;101020.88;;;10.27;67.90
75886;BME280;64561;44.018;10.144;2023-04-03T02:38:33;101027.31;;;10.14;67.77
75886;BME280;64561;44.018;10.144;2023-04-03T02:41:11;101042.69;;;9.87;67.76
75886;BME280;64561;44.018;10.144;2023-04-03T02:43:38;101037.78;;;9.93;67.84
75886;BME280;64561;44.018;10.144;2023-04-03T02:46:06;101032.00;;;10.00;68.37
75886;BME280;64561;44.018;10.144;2023-04-03T02:48:33;101024.53;;;9.78;68.90
75886;BME280;64561;44.018;10.144;2023-04-03T02:51:00;101031.66;;;9.90;70.82
75886;BME280;64561;44.018;10.144;2023-04-03T02:53:28;101029.81;;;9.84;69.20
75886;BME280;64561;44.018;10.144;2023-04-03T02:55:55;101029.72;;;9.81;69.94
75886;BME280;64561;44.018;10.144;2023-04-03T02:58:22;101028.81;;;9.79;70.54
75886;BME280;64561;44.018;10.144;2023-04-03T03:00:49;101024.66;;;9.82;70.99
75886;BME280;64561;44.018;10.144;2023-04-03T03:03:16;101027.97;;;9.80;71.64
75886;BME280;64561;44.018;10.144;2023-04-03T03:05:43;101020.72;;;9.65;70.42
75886;BME280;64561;44.018;10.144;2023-04-03T03:08:10;101026.75;;;9.67;71.55
75886;BME280;64561;44.018;10.144;2023-04-03T03:10:37;101026.81;;;9.69;70.92
75886;BME280;64561;44.018;10.144;2023-04-03T03:13:06;101026.00;;;9.43;71.96
75886;BME280;64561;44.018;10.144;2023-04-03T03:15:33;101032.28;;;9.27;71.95
75886;BME280;64561;44.018;10.144;2023-04-03T03:18:01;101023.41;;;9.15;71.87
75886;BME280;64561;44.018;10.144;2023-04-03T03:20:28;101022.69;;;9.20;72.04
75886;BME280;64561;44.018;10.144;2023-04-03T03:22:55;101022.13;;;9.28;72.07
75886;BME280;64561;44.018;10.144;2023-04-03T03:25:24;101017.84;;;9.27;71.94
75886;BME280;64561;44.018;10.144;2023-04-03T03:27:51;101022.47;;;9.39;73.04
75886;BME280;64561;44.018;10.144;2023-04-03T03:30:18;101017.56;;;9.45;73.01
75886;BME280;64561;44.018;10.144;2023-04-03T03:32:45;101013.06;;;9.38;72.49
75886;BME280;64561;44.018;10.144;2023-04-03T03:35:12;101014.75;;;9.37;72.34
75886;BME280;64561;44.018;10.144;2023-04-03T03:37:38;101017.66;;;9.48;71.21
75886;BME280;64561;44.018;10.144;2023-04-03T03:40:06;101019.44;;;9.24;71.51
75886;BME280;64561;44.018;10.144;2023-04-03T03:42:33;101018.63;;;9.26;71.86
75886;BME280;64561;44.018;10.144;2023-04-03T03:45:01;101019.81;;;9.36;72.68
75886;BME280;64561;44.018;10.144;2023-04-03T03:47:28;101012.28;;;9.41;73.28
75886;BME280;64561;44.018;10.144;2023-04-03T03:49:55;101016.16;;;9.28;72.25
75886;BME280;64561;44.018;10.144;2023-04-03T03:52:22;101007.53;;;9.24;72.95
75886;BME280;64561;44.018;10.144;2023-04-03T03:54:49;101008.97;;;9.16;71.82
75886;BME280;64561;44.018;10.144;2023-04-03T03:57:16;101015.50;;;9.08;72.21
75886;BME280;64561;44.018;10.144;2023-04-03T03:59:43;101010.94;;;8.74;73.00
75886;BME280;64561;44.018;10.144;2023-04-03T04:02:11;101016.41;;;8.84;72.36
75886;BME280;64561;44.018;10.144;2023-04-03T04:04:38;101016.88;;;8.98;73.70
75886;BME280;64561;44.018;10.144;2023-04-03T04:07:04;101025.00;;;9.12;73.75
75886;BME280;64561;44.018;10.144;2023-04-03T04:09:33;101018.53;;;9.23;71.57
75886;BME280;64561;44.018;10.144;2023-04-03T04:12:00;101023.53;;;9.20;72.62
75886;BME280;64561;44.018;10.144;2023-04-03T04:14:28;101031.28;;;9.22;72.72
75886;BME280;64561;44.018;10.144;2023-04-03T04:16:55;101024.81;;;9.06;72.71
75886;BME280;64561;44.018;10.144;2023-04-03T04:19:25;101021.47;;;9.08;73.14
75886;BME280;64561;44.018;10.144;2023-04-03T04:21:53;101016.69;;;9.18;73.57
75886;BME280;64561;44.018;10.144;2023-04-03T04:24:20;101015.22;;;9.26;73.56
75886;BME280;64561;44.018;10.144;2023-04-03T04:26:48;101015.34;;;9.03;73.09
75886;BME280;64561;44.018;10.144;2023-04-03T04:29:16;101014.88;;;8.89;73.28
75886;BME280;64561;44.018;10.144;2023-04-03T04:31:46;101013.09;;;8.87;73.62
75886;BME280;64561;44.018;10.144;2023-04-03T04:34:13;101024.44;;;8.95;74.43
75886;BME280;64561;44.018;10.144;2023-04-03T04:36:41;101021.31;;;9.04;74.45
75886;BME280;64561;44.018;10.144;2023-04-03T04:39:09;101015.66;;;9.12;73.73
75886;BME280;64561;44.018;10.144;2023-04-03T04:41:35;101006.34;;;9.14;73.33
75886;BME280;64561;44.018;10.144;2023-04-03T04:44:05;101021.53;;;9.10;72.65
75886;BME280;64561;44.018;10.144;2023-04-03T04:46:32;101033.31;;;9.06;72.61
75886;BME280;64561;44.018;10.144;2023-04-03T04:48:59;101024.91;;;9.09;73.30
75886;BME280;64561;44.018;10.144;2023-04-03T04:51:29;101018.91;;;9.08;73.95
75886;BME280;64561;44.018;10.144;2023-04-03T04:54:09;101023.00;;;9.03;73.19
75886;BME280;64561;44.018;10.144;2023-04-03T04:56:37;101018.31;;;8.66;73.93
75886;BME280;64561;44.018;10.144;2023-04-03T04:59:03;101027.84;;;8.70;74.47
75886;BME280;64561;44.018;10.144;2023-04-03T05:01:30;101024.69;;;8.77;74.42
75886;BME280;64561;44.018;10.144;2023-04-03T05:04:10;101029.13;;;8.83;74.76
75886;BME280;64561;44.018;10.144;2023-04-03T05:06:39;101022.59;;;8.91;75.04
75886;BME280;64561;44.018;10.144;2023-04-03T05:09:11;101023.81;;;8.77;75.04
75886;BME280;64561;44.018;10.144;2023-04-03T05:11:41;101025.88;;;8.63;74.82
75886;BME280;64561;44.018;10.144;2023-04-03T05:14:10;101037.53;;;8.56;76.30
75886;BME280;64561;44.018;10.144;2023-04-03T05:16:37;101037.53;;;8.56;75.37
75886;BME280;64561;44.018;10.144;2023-04-03T05:19:06;101032.97;;;8.72;76.19
75886;BME280;64561;44.018;10.144;2023-04-03T05:21:33;101039.13;;;8.77;75.52
75886;BME280;64561;44.018;10.144;2023-04-03T05:24:06;101033.94;;;8.75;75.64
75886;BME280;64561;44.018;10.144;2023-04-03T05:26:38;101038.47;;;8.82;75.25
75886;BME280;64561;44.018;10.144;2023-04-03T05:29:06;101037.50;;;8.79;74.83
75886;BME280;64561;44.018;10.144;2023-04-03T05:31:33;101043.06;;;8.68;76.05
75886;BME280;64561;44.018;10.144;2023-04-03T05:34:00;101048.78;;;8.61;75.50
75886;BME280;64561;44.018;10.144;2023-04-03T05:36:29;101050.91;;;8.73;74.93
75886;BME280;64561;44.018;10.144;2023-04-03T05:39:02;101054.25;;;8.72;74.86
75886;BME280;64561;44.018;10.144;2023-04-03T05:41:32;101053.13;;;8.64;75.71
75886;BME280;64561;44.018;10.144;2023-04-03T05:43:59;101041.19;;;8.63;76.13
75886;BME280;64561;44.018;10.144;2023-04-03T05:46:26;101049.03;;;8.69;76.01
75886;BME280;64561;44.018;10.144;2023-04-03T05:48:55;101048.91;;;8.64;76.60
75886;BME280;64561;44.018;10.144;2023-04-03T05:51:31;101046.97;;;8.83;76.77
75886;BME280;64561;44.018;10.144;2023-04-03T05:54:17;101039.59;;;8.90;76.24
75886;BME280;64561;44.018;10.144;2023-04-03T05:56:46;101049.31;;;8.77;77.31
75886;BME280;64561;44.018;10.144;2023-04-03T05:59:13;101050.03;;;8.73;76.72
75886;BME280;64561;44.018;10.144;2023-04-03T06:01:40;101054.53;;;8.80;76.43
75886;BME280;64561;44.018;10.144;2023-04-03T06:04:07;101049.75;;;8.89;76.55
75886;BME280;64561;44.018;10.144;2023-04-03T06:09:14;101060.31;;;9.25;76.31
75886;BME280;64561;44.018;10.144;2023-04-03T06:11:43;101062.53;;;9.42;76.27
75886;BME280;64561;44.018;10.144;2023-04-03T06:14:11;101056.00;;;9.50;76.59
75886;BME280;64561;44.018;10.144;2023-04-03T06:16:37;101056.34;;;9.60;75.67
75886;BME280;64561;44.018;10.144;2023-04-03T06:19:10;101061.19;;;9.80;75.27
75886;BME280;64561;44.018;10.144;2023-04-03T06:21:43;101066.59;;;9.89;75.90
75886;BME280;64561;44.018;10.144;2023-04-03T06:24:14;101072.13;;;10.03;75.98
75886;BME280;64561;44.018;10.144;2023-04-03T06:26:42;101074.97;;;10.12;75.77
75886;BME280;64561;44.018;10.144;2023-04-03T06:29:09;101073.59;;;10.23;75.65
75886;BME280;64561;44.018;10.144;2023-04-03T06:31:36;101070.47;;;10.32;75.22
75886;BME280;64561;44.018;10.144;2023-04-03T06:34:03;101077.66;;;10.45;71.99
75886;BME280;64561;44.018;10.144;2023-04-03T06:36:33;101070.25;;;10.55;67.68
75886;BME280;64561;44.018;10.144;2023-04-03T06:39:00;101065.53;;;10.70;67.17
75886;BME280;64561;44.018;10.144;2023-04-03T06:41:29;101076.09;;;10.82;68.67
75886;BME280;64561;44.018;10.144;2023-04-03T06:43:56;101061.13;;;10.96;69.03
75886;BME280;64561;44.018;10.144;2023-04-03T06:46:26;101057.09;;;11.04;67.71
75886;BME280;64561;44.018;10.144;2023-04-03T06:48:53;101067.56;;;11.15;66.40
75886;BME280;64561;44.018;10.144;2023-04-03T06:51:27;101072.06;;;11.24;63.42
75886;BME280;64561;44.018;10.144;2023-04-03T06:53:57;101068.22;;;11.41;65.73
75886;BME280;64561;44.018;10.144;2023-04-03T06:56:25;101059.84;;;11.47;66.30
75886;BME280;64561;44.018;10.144;2023-04-03T06:58:53;101049.72;;;11.53;66.98
75886;BME280;64561;44.018;10.144;2023-04-03T07:01:21;101060.28;;;11.66;65.89
75886;BME280;64561;44.018;10.144;2023-04-03T07:03:48;101053.66;;;11.76;62.47
75886;BME280;64561;44.018;10.144;2023-04-03T07:06:16;101056.41;;;11.82;61.38
75886;BME280;64561;44.018;10.144;2023-04-03T07:08:44;101052.22;;;11.86;62.75
75886;BME280;64561;44.018;10.144;2023-04-03T07:11:12;101054.81;;;11.87;63.63
75886;BME280;64561;44.018;10.144;2023-04-03T07:13:39;101054.25;;;12.01;63.19
75886;BME280;64561;44.018;10.144;2023-04-03T07:16:07;101059.59;;;12.11;61.44
75886;BME280;64561;44.018;10.144;2023-04-03T07:18:34;101058.88;;;12.17;63.18
75886;BME280;64561;44.018;10.144;2023-04-03T07:21:02;101048.63;;;12.17;64.96
75886;BME280;64561;44.018;10.144;2023-04-03T07:23:29;101053.94;;;12.26;63.57
75886;BME280;64561;44.018;10.144;2023-04-03T07:25:56;101054.84;;;12.30;63.45
75886;BME280;64561;44.018;10.144;2023-04-03T07:28:23;101048.00;;;12.29;62.10
75886;BME280;64561;44.018;10.144;2023-04-03T07:31:01;101059.25;;;12.35;62.06
75886;BME280;64561;44.018;10.144;2023-04-03T07:33:29;101055.16;;;12.45;59.90
75886;BME280;64561;44.018;10.144;2023-04-03T07:35:56;101053.44;;;12.43;61.08
75886;BME280;64561;44.018;10.144;2023-04-03T07:38:23;101052.63;;;12.47;62.28
75886;BME280;64561;44.018;10.144;2023-04-03T07:40:51;101054.47;;;12.52;64.03
75886;BME280;64561;44.018;10.144;2023-04-03T07:43:21;101051.97;;;12.55;61.12
75886;BME280;64561;44.018;10.144;2023-04-03T07:45:48;101064.88;;;12.60;61.27
75886;BME280;64561;44.018;10.144;2023-04-03T07:48:20;101058.00;;;12.59;61.98
75886;BME280;64561;44.018;10.144;2023-04-03T07:50:47;101052.94;;;12.61;63.33
75886;BME280;64561;44.018;10.144;2023-04-03T07:53:14;101051.38;;;12.70;65.45
75886;BME280;64561;44.018;10.144;2023-04-03T07:55:41;101058.34;;;12.77;66.81
75886;BME280;64561;44.018;10.144;2023-04-03T07:58:12;101053.38;;;12.87;64.36
75886;BME280;64561;44.018;10.144;2023-04-03T08:00:39;101049.31;;;12.99;64.48
75886;BME280;64561;44.018;10.144;2023-04-03T08:03:07;101049.69;;;13.19;61.91
75886;BME280;64561;44.018;10.144;2023-04-03T08:05:41;101045.50;;;13.24;61.72
75886;BME280;64561;44.018;10.144;2023-04-03T08:08:10;101052.53;;;13.35;60.48
75886;BME280;64561;44.018;10.144;2023-04-03T08:10:38;101047.53;;;13.44;59.41
75886;BME280;64561;44.018;10.144;2023-04-03T08:13:06;101045.97;;;13.52;57.13
75886;BME280;64561;44.018;10.144;2023-04-03T08:15:33;101053.63;;;13.50;58.20
75886;BME280;64561;44.018;10.144;2023-04-03T08:18:01;101051.94;;;13.51;60.84
75886;BME280;64561;44.018;10.144;2023-04-03T08:20:28;101050.50;;;13.70;58.94
75886;BME280;64561;44.018;10.144;2023-04-03T08:22:55;101043.69;;;13.72;57.65
75886;BME280;64561;44.018;10.144;2023-04-03T08:25:22;101050.50;;;13.70;59.08
75886;BME280;64561;44.018;10.144;2023-04-03T08:27:48;101055.72;;;13.75;56.45
75886;BME280;64561;44.018;10.144;2023-04-03T08:30:15;101048.00;;;13.75;55.73
75886;BME280;64561;44.018;10.144;2023-04-03T08:32:42;101051.72;;;13.93;55.95
75886;BME280;64561;44.018;10.144;2023-04-03T08:35:10;101045.75;;;13.98;54.81
75886;BME280;64561;44.018;10.144;2023-04-03T08:37:38;101051.00;;;14.07;54.58
75886;BME280;64561;44.018;10.144;2023-04-03T08:40:07;101052.72;;;14.06;56.36
75886;BME280;64561;44.018;10.144;2023-04-03T08:42:46;101048.59;;;14.17;54.86
75886;BME280;64561;44.018;10.144;2023-04-03T08:45:40;101043.63;;;14.33;52.18
75886;BME280;64561;44.018;10.144;2023-04-03T08:48:19;101034.50;;;14.56;53.92
75886;BME280;64561;44.018;10.144;2023-04-03T08:50:47;101038.91;;;14.70;52.30
75886;BME280;64561;44.018;10.144;2023-04-03T08:53:21;101038.03;;;14.68;51.33
75886;BME280;64561;44.018;10.144;2023-04-03T08:55:50;101028.50;;;14.59;51.10
75886;BME280;64561;44.018;10.144;2023-04-03T08:58:30;101030.28;;;14.63;54.11
75886;BME280;64561;44.018;10.144;2023-04-03T09:01:03;101031.25;;;14.76;58.06
75886;BME280;64561;44.018;10.144;2023-04-03T09:03:39;101021.91;;;14.84;55.71
75886;BME280;64561;44.018;10.144;2023-04-03T09:23:24;101014.72;;;15.58;53.32
75886;BME280;64561;44.018;10.144;2023-04-03T09:26:01;101004.50;;;15.70;53.98
75886;BME280;64561;44.018;10.144;2023-04-03T09:28:34;101005.47;;;15.80;55.63
75886;BME280;64561;44.018;10.144;2023-04-03T09:31:19;101013.22;;;15.86;56.53
75886;BME280;64561;44.018;10.144;2023-04-03T09:33:50;101000.31;;;15.87;53.25
75886;BME280;64561;44.018;10.144;2023-04-03T09:36:53;101009.69;;;15.70;54.36
75886;BME280;64561;44.018;10.144;2023-04-03T09:39:28;101010.47;;;15.64;56.46
75886;BME280;64561;44.018;10.144;2023-04-03T09:44:29;101000.13;;;15.61;55.92
75886;BME280;64561;44.018;10.144;2023-04-03T09:46:57;101001.13;;;15.74;59.49
75886;BME280;64561;44.018;10.144;2023-04-03T09:49:24;100999.41;;;15.79;57.74
75886;BME280;64561;44.018;10.144;2023-04-03T09:51:51;100999.47;;;15.93;58.58
75886;BME280;64561;44.018;10.144;2023-04-03T09:57:01;100991.72;;;15.94;55.90
75886;BME280;64561;44.018;10.144;2023-04-03T09:59:31;100993.44;;;15.89;57.37
75886;BME280;64561;44.018;10.144;2023-04-03T10:04:59;100983.09;;;15.80;58.95
75886;BME280;64561;44.018;10.144;2023-04-03T10:07:39;100984.78;;;15.75;60.95
75886;BME280;64561;44.018;10.144;2023-04-03T10:12:41;100984.00;;;15.93;56.47
75886;BME280;64561;44.018;10.144;2023-04-03T10:15:13;100984.06;;;16.04;55.58
75886;BME280;64561;44.018;10.144;2023-04-03T10:18:02;100987.47;;;16.03;54.65
75886;BME280;64561;44.018;10.144;2023-04-03T10:20:51;100984.84;;;15.93;51.98
75886;BME280;64561;44.018;10.144;2023-04-03T10:23:30;100974.47;;;15.76;50.23
75886;BME280;64561;44.018;10.144;2023-04-03T10:31:25;100982.97;;;15.62;49.89
75886;BME280;64561;44.018;10.144;2023-04-03T10:34:28;100979.63;;;15.75;53.32
75886;BME280;64561;44.018;10.144;2023-04-03T10:37:08;100980.59;;;16.06;54.41
75886;BME280;64561;44.018;10.144;2023-04-03T10:50:53;100956.69;;;16.91;50.82
75886;BME280;64561;44.018;10.144;2023-04-03T10:53:32;100951.53;;;16.87;48.51
75886;BME280;64561;44.018;10.144;2023-04-03T10:58:52;100942.03;;;16.87;48.27
75886;BME280;64561;44.018;10.144;2023-04-03T11:01:24;100948.06;;;16.86;46.42
75886;BME280;64561;44.018;10.144;2023-04-03T11:03:57;100947.22;;;16.92;45.94
75886;BME280;64561;44.018;10.144;2023-04-03T11:06:32;100943.75;;;16.93;46.54
75886;BME280;64561;44.018;10.144;2023-04-03T11:09:03;100949.81;;;16.95;46.53
75886;BME280;64561;44.018;10.144;2023-04-03T11:11:34;100948.09;;;17.06;44.97
75886;BME280;64561;44.018;10.144;2023-04-03T11:14:14;100935.16;;;16.99;44.57
75886;BME280;64561;44.018;10.144;2023-04-03T11:16:50;100940.31;;;16.99;45.95
75886;BME280;64561;44.018;10.144;2023-04-03T11:19:33;100942.03;;;17.18;46.18
75886;BME280;64561;44.018;10.144;2023-04-03T11:24:42;100938.44;;;17.70;50.80
75886;BME280;64561;44.018;10.144;2023-04-03T11:27:17;100928.94;;;17.78;44.00
75886;BME280;64561;44.018;10.144;2023-04-03T11:29:49;100928.06;;;17.85;46.59
75886;BME280;64561;44.018;10.144;2023-04-03T11:35:28;100914.22;;;17.91;44.71
75886;BME280;64561;44.018;10.144;2023-04-03T11:37:56;100918.56;;;17.75;45.87
75886;BME280;64561;44.018;10.144;2023-04-03T11:40:31;100910.78;;;17.92;48.46
75886;BME280;64561;44.018;10.144;2023-04-03T11:45:33;100903.84;;;17.97;46.86
75886;BME280;64561;44.018;10.144;2023-04-03T11:48:05;100915.81;;;18.18;48.02
75886;BME280;64561;44.018;10.144;2023-04-03T11:50:49;100907.09;;;18.30;47.04
75886;BME280;64561;44.018;10.144;2023-04-03T11:55:52;100901.84;;;18.37;46.24
75886;BME280;64561;44.018;10.144;2023-04-03T12:01:05;100887.06;;;18.50;46.83
75886;BME280;64561;44.018;10.144;2023-04-03T12:04:27;100882.84;;;18.41;44.41
75886;BME280;64561;44.018;10.144;2023-04-03T12:08:59;100881.97;;;18.38;47.74
75886;BME280;64561;44.018;10.144;2023-04-03T12:11:30;100881.13;;;18.39;44.55
75886;BME280;64561;44.018;10.144;2023-04-03T12:19:35;100873.34;;;18.42;43.97
75886;BME280;64561;44.018;10.144;2023-04-03T12:22:09;100866.38;;;18.48;47.66
75886;BME280;64561;44.018;10.144;2023-04-03T12:24:39;100851.69;;;18.46;46.05
75886;BME280;64561;44.018;10.144;2023-04-03T12:35:56;100854.25;;;18.50;44.85
75886;BME280;64561;44.018;10.144;2023-04-03T12:41:25;100841.97;;;18.71;42.25
75886;BME280;64561;44.018;10.144;2023-04-03T12:44:13;100847.19;;;18.68;39.12
75886;BME280;64561;44.018;10.144;2023-04-03T12:46:47;100845.47;;;18.67;39.66
75886;BME280;64561;44.018;10.144;2023-04-03T12:49:37;100843.66;;;18.80;39.68
75886;BME280;64561;44.018;10.144;2023-04-03T12:52:19;100842.72;;;18.85;40.95
75886;BME280;64561;44.018;10.144;2023-04-03T12:54:49;100838.31;;;18.95;43.53
75886;BME280;64561;44.018;10.144;2023-04-03T12:57:24;100834.75;;;19.04;44.08
75886;BME280;64561;44.018;10.144;2023-04-03T12:59:51;100846.91;;;19.02;44.20
75886;BME280;64561;44.018;10.144;2023-04-03T13:02:44;100834.72;;;19.07;43.74
75886;BME280;64561;44.018;10.144;2023-04-03T13:05:17;100838.31;;;18.96;42.38
75886;BME280;64561;44.018;10.144;2023-04-03T13:07:49;100833.16;;;18.92;43.21
75886;BME280;64561;44.018;10.144;2023-04-03T13:10:17;100828.91;;;18.85;44.55
75886;BME280;64561;44.018;10.144;2023-04-03T13:15:19;100816.09;;;18.65;42.88
75886;BME280;64561;44.018;10.144;2023-04-03T13:17:46;100811.63;;;18.87;44.68
75886;BME280;64561;44.018;10.144;2023-04-03T13:20:31;100827.13;;;18.88;44.43
75886;BME280;64561;44.018;10.144;2023-04-03T13:23:07;100821.97;;;18.85;45.10
75886;BME280;64561;44.018;10.144;2023-04-03T13:25:41;100826.38;;;18.77;45.37
75886;BME280;64561;44.018;10.144;2023-04-03T13:28:12;100819.53;;;18.67;43.67
75886;BME280;64561;44.018;10.144;2023-04-03T13:30:41;100816.91;;;18.78;45.63
75886;BME280;64561;44.018;10.144;2023-04-03T13:33:26;100814.22;;;18.87;44.56
75886;BME280;64561;44.018;10.144;2023-04-03T13:36:09;100808.94;;;18.93;42.99
75886;BME280;64561;44.018;10.144;2023-04-03T13:38:40;100805.56;;;18.86;44.70
75886;BME280;64561;44.018;10.144;2023-04-03T13:41:29;100808.06;;;18.94;45.80
75886;BME280;64561;44.018;10.144;2023-04-03T13:43:56;100809.81;;;18.92;49.06
75886;BME280;64561;44.018;10.144;2023-04-03T13:46:35;100811.47;;;18.98;48.00
75886;BME280;64561;44.018;10.144;2023-04-03T13:49:20;100808.16;;;18.86;49.39
75886;BME280;64561;44.018;10.144;2023-04-03T13:51:48;100818.56;;;18.82;50.63
75886;BME280;64561;44.018;10.144;2023-04-03T13:54:32;100816.94;;;18.71;50.15
75886;BME280;64561;44.018;10.144;2023-04-03T13:57:00;100808.28;;;18.69;47.71
75886;BME280;64561;44.018;10.144;2023-04-03T13:59:35;100810.03;;;18.69;46.82
75886;BME280;64561;44.018;10.144;2023-04-03T14:04:53;100807.53;;;18.60;46.43
75886;BME280;64561;44.018;10.144;2023-04-03T14:07:19;100807.53;;;18.60;46.22
75886;BME280;64561;44.018;10.144;2023-04-03T14:09:48;100803.25;;;18.54;45.68
75886;BME280;64561;44.018;10.144;2023-04-03T14:12:19;100804.97;;;18.55;48.67
75886;BME280;64561;44.018;10.144;2023-04-03T14:14:59;100799.75;;;18.58;50.05
75886;BME280;64561;44.018;10.144;2023-04-03T14:17:27;100791.06;;;18.65;52.04
75886;BME280;64561;44.018;10.144;2023-04-03T14:19:55;100794.47;;;18.67;50.13
75886;BME280;64561;44.018;10.144;2023-04-03T14:22:26;100792.75;;;18.68;53.19
75886;BME280;64561;44.018;10.144;2023-04-03T14:24:55;100791.13;;;18.56;51.92
75886;BME280;64561;44.018;10.144;2023-04-03T14:27:26;100785.97;;;18.53;51.42
75886;BME280;64561;44.018;10.144;2023-04-03T14:29:54;100779.97;;;18.51;48.20
75886;BME280;64561;44.018;10.144;2023-04-03T14:32:23;100781.78;;;18.41;50.18
75886;BME280;64561;44.018;10.144;2023-04-03T14:34:51;100785.22;;;18.42;48.28
75886;BME280;64561;44.018;10.144;2023-04-03T14:37:24;100781.00;;;18.32;44.81